sensor_id;sensor_type;location;lat;lon;timestamp;pressure;altitude;pressure_sealevel;temperature;humidity
11053;BME280;55230;42.602;23.470;2022-07-03T00:01:17;93498.25;;;16.60;90.06
11053;BME280;55230;42.602;23.470;2022-07-03T00:03:44;93981.28;;;19.83;89.65
11053;BME280;55230;42.602;23.470;2022-07-03T00:06:11;93983.25;;;19.77;89.77
11053;BME280;55230;42.602;23.470;2022-07-03T00:08:38;93974.28;;;19.76;86.93
11053;BME280;55230;42.602;23.470;2022-07-03T00:11:08;93526.72;;;16.64;86.30
11053;BME280;55230;42.602;23.470;2022-07-03T00:13:35;93961.03;;;19.52;89.97
11053;BME280;55230;42.602;23.470;2022-07-03T00:16:02;93943.13;;;19.46;89.09
11053;BME280;55230;42.602;23.470;2022-07-03T00:18:29;93907.47;;;19.29;85.42
11053;BME280;55230;42.602;23.470;2022-07-03T00:21:00;93980.84;;;19.36;87.69
11053;BME280;55230;42.602;23.470;2022-07-03T00:23:29;93988.22;;;19.78;87.35
11053;BME280;55230;42.602;23.470;2022-07-03T00:25:57;93987.72;;;19.80;89.17
11053;BME280;55230;42.602;23.470;2022-07-03T00:28:28;93906.94;;;19.20;90.08
11053;BME280;55230;42.602;23.470;2022-07-03T00:30:58;93975.19;;;19.45;91.25
11053;BME280;55230;42.602;23.470;2022-07-03T00:33:27;93929.47;;;19.04;91.06
11053;BME280;55230;42.602;23.470;2022-07-03T00:35:55;93976.16;;;19.37;91.52
11053;BME280;55230;42.602;23.470;2022-07-03T00:38:22;93985.78;;;19.27;90.89
11053;BME280;55230;42.602;23.470;2022-07-03T00:40:49;93854.28;;;18.66;91.38
11053;BME280;55230;42.602;23.470;2022-07-03T00:43:16;93874.97;;;18.78;90.88
11053;BME280;55230;42.602;23.470;2022-07-03T00:45:47;93873.97;;;18.81;91.38
11053;BME280;55230;42.602;23.470;2022-07-03T00:48:15;93753.03;;;17.49;90.48
11053;BME280;55230;42.602;23.470;2022-07-03T00:50:45;93949.28;;;19.35;87.67
11053;BME280;55230;42.602;23.470;2022-07-03T00:53:18;93490.44;;;16.16;85.74
11053;BME280;55230;42.602;23.470;2022-07-03T00:55:47;93944.91;;;19.71;84.46
11053;BME280;55230;42.602;23.470;2022-07-03T00:58:16;93915.03;;;19.51;85.29
11053;BME280;55230;42.602;23.470;2022-07-03T01:00:43;93899.31;;;19.40;85.30
11053;BME280;55230;42.602;23.470;2022-07-03T01:03:14;93943.66;;;19.78;83.89
11053;BME280;55230;42.602;23.470;2022-07-03T01:05:44;93872.72;;;19.35;83.17
11053;BME280;55230;42.602;23.470;2022-07-03T01:08:19;93887.13;;;19.41;83.29
11053;BME280;55230;42.602;23.470;2022-07-03T01:10:54;93951.41;;;19.85;83.22
11053;BME280;55230;42.602;23.470;2022-07-03T01:13:36;93955.91;;;19.88;83.69
11053;BME280;55230;42.602;23.470;2022-07-03T01:16:06;93951.16;;;19.83;83.73
11053;BME280;55230;42.602;23.470;2022-07-03T01:18:44;93879.38;;;19.23;83.88
11053;BME280;55230;42.602;23.470;2022-07-03T01:21:23;93945.19;;;19.79;84.48
11053;BME280;55230;42.602;23.470;2022-07-03T01:24:23;93946.66;;;19.80;84.54
11053;BME280;55230;42.602;23.470;2022-07-03T01:27:00;93987.22;;;19.76;84.59
11053;BME280;55230;42.602;23.470;2022-07-03T01:29:38;93933.72;;;19.64;85.72
11053;BME280;55230;42.602;23.470;2022-07-03T01:32:07;93998.06;;;19.53;87.13
11053;BME280;55230;42.602;23.470;2022-07-03T01:34:36;93943.81;;;19.35;88.35
11053;BME280;55230;42.602;23.470;2022-07-03T01:37:09;93900.91;;;18.99;88.20
11053;BME280;55230;42.602;23.470;2022-07-03T01:39:37;93944.47;;;19.19;89.24
11053;BME280;55230;42.602;23.470;2022-07-03T01:42:11;93719.88;;;17.56;88.77
11053;BME280;55230;42.602;23.470;2022-07-03T01:44:39;93742.09;;;17.80;88.20
11053;BME280;55230;42.602;23.470;2022-07-03T01:47:07;93960.09;;;19.13;89.83
11053;BME280;55230;42.602;23.470;2022-07-03T01:49:35;93900.81;;;18.77;90.24
11053;BME280;55230;42.602;23.470;2022-07-03T01:52:02;93564.16;;;16.44;90.82
11053;BME280;55230;42.602;23.470;2022-07-03T01:54:31;93936.16;;;18.97;90.97
11053;BME280;55230;42.602;23.470;2022-07-03T01:57:00;93513.03;;;15.51;90.89
11053;BME280;55230;42.602;23.470;2022-07-03T01:59:29;93963.91;;;18.79;92.31
11053;BME280;55230;42.602;23.470;2022-07-03T02:02:02;93934.03;;;18.70;93.77
11053;BME280;55230;42.602;23.470;2022-07-03T02:04:33;93938.97;;;18.66;94.28
11053;BME280;55230;42.602;23.470;2022-07-03T02:07:02;93897.53;;;18.00;96.34
11053;BME280;55230;42.602;23.470;2022-07-03T02:09:46;93936.38;;;18.46;96.58
11053;BME280;55230;42.602;23.470;2022-07-03T02:12:18;93929.38;;;18.45;95.93
11053;BME280;55230;42.602;23.470;2022-07-03T02:14:53;93836.41;;;17.35;95.95
11053;BME280;55230;42.602;23.470;2022-07-03T02:17:25;93981.88;;;18.55;94.62
11053;BME280;55230;42.602;23.470;2022-07-03T02:19:58;93910.47;;;18.36;92.66
11053;BME280;55230;42.602;23.470;2022-07-03T02:22:28;93941.97;;;18.68;93.25
11053;BME280;55230;42.602;23.470;2022-07-03T02:25:02;93942.50;;;18.72;93.64
11053;BME280;55230;42.602;23.470;2022-07-03T02:27:32;93943.50;;;18.75;93.91
11053;BME280;55230;42.602;23.470;2022-07-03T02:30:08;93939.78;;;18.72;93.54
11053;BME280;55230;42.602;23.470;2022-07-03T02:32:40;93942.50;;;18.72;94.06
11053;BME280;55230;42.602;23.470;2022-07-03T02:35:11;93659.09;;;16.56;94.57
11053;BME280;55230;42.602;23.470;2022-07-03T02:37:43;93944.13;;;18.59;94.91
11053;BME280;55230;42.602;23.470;2022-07-03T02:40:20;93948.38;;;18.60;94.79
11053;BME280;55230;42.602;23.470;2022-07-03T02:42:56;93839.19;;;17.97;94.89
11053;BME280;55230;42.602;23.470;2022-07-03T02:45:31;93940.66;;;18.58;95.14
11053;BME280;55230;42.602;23.470;2022-07-03T02:48:07;93937.41;;;18.54;95.25
11053;BME280;55230;42.602;23.470;2022-07-03T02:50:40;93961.72;;;18.52;95.35
11053;BME280;55230;42.602;23.470;2022-07-03T02:53:14;93902.88;;;18.20;95.33
11053;BME280;55230;42.602;23.470;2022-07-03T02:55:46;93948.78;;;18.47;96.64
11053;BME280;55230;42.602;23.470;2022-07-03T02:58:27;93902.13;;;18.19;96.49
11053;BME280;55230;42.602;23.470;2022-07-03T03:01:08;93464.00;;;14.99;96.77
11053;BME280;55230;42.602;23.470;2022-07-03T03:03:37;93828.25;;;17.61;96.78
11053;BME280;55230;42.602;23.470;2022-07-03T03:06:13;93960.72;;;18.50;96.83
11053;BME280;55230;42.602;23.470;2022-07-03T03:08:43;93915.28;;;18.21;96.73
11053;BME280;55230;42.602;23.470;2022-07-03T03:11:19;93894.13;;;18.10;96.88
11053;BME280;55230;42.602;23.470;2022-07-03T03:13:50;93957.84;;;18.64;96.64
11053;BME280;55230;42.602;23.470;2022-07-03T03:16:22;93960.81;;;18.66;96.79
11053;BME280;55230;42.602;23.470;2022-07-03T03:18:49;93856.13;;;18.01;96.18
11053;BME280;55230;42.602;23.470;2022-07-03T03:21:17;93954.47;;;18.80;95.64
11053;BME280;55230;42.602;23.470;2022-07-03T03:23:45;93804.97;;;18.02;95.88
11053;BME280;55230;42.602;23.470;2022-07-03T03:26:14;93989.97;;;19.22;94.64
11053;BME280;55230;42.602;23.470;2022-07-03T03:28:43;93735.69;;;17.88;91.60
11053;BME280;55230;42.602;23.470;2022-07-03T03:31:10;93746.50;;;18.08;90.00
11053;BME280;55230;42.602;23.470;2022-07-03T03:33:42;93960.66;;;19.98;89.55
11053;BME280;55230;42.602;23.470;2022-07-03T03:36:11;93931.66;;;19.47;91.90
11053;BME280;55230;42.602;23.470;2022-07-03T03:38:39;93973.06;;;19.83;90.46
11053;BME280;55230;42.602;23.470;2022-07-03T03:41:07;94007.41;;;19.89;89.56
11053;BME280;55230;42.602;23.470;2022-07-03T03:43:34;93971.16;;;20.22;88.82
11053;BME280;55230;42.602;23.470;2022-07-03T03:46:02;93909.91;;;20.19;86.67
11053;BME280;55230;42.602;23.470;2022-07-03T03:48:30;93969.13;;;20.94;85.40
11053;BME280;55230;42.602;23.470;2022-07-03T03:50:59;93792.13;;;20.36;81.78
11053;BME280;55230;42.602;23.470;2022-07-03T03:53:27;93976.22;;;21.99;77.06
11053;BME280;55230;42.602;23.470;2022-07-03T03:55:59;93980.81;;;22.26;76.60
11053;BME280;55230;42.602;23.470;2022-07-03T03:58:26;93938.97;;;22.38;74.08
11053;BME280;55230;42.602;23.470;2022-07-03T04:00:55;93990.44;;;22.73;73.26
11053;BME280;55230;42.602;23.470;2022-07-03T04:03:22;93977.88;;;22.83;71.51
11053;BME280;55230;42.602;23.470;2022-07-03T04:05:49;94012.50;;;23.69;68.00
11053;BME280;55230;42.602;23.470;2022-07-03T04:08:18;93984.69;;;24.29;66.77
11053;BME280;55230;42.602;23.470;2022-07-03T04:10:45;93885.44;;;24.16;64.43
11053;BME280;55230;42.602;23.470;2022-07-03T04:13:12;93826.13;;;24.41;62.45
11053;BME280;55230;42.602;23.470;2022-07-03T04:15:38;93966.19;;;25.71;61.15
11053;BME280;55230;42.602;23.470;2022-07-03T04:18:05;93970.63;;;25.87;58.40
11053;BME280;55230;42.602;23.470;2022-07-03T04:20:32;93928.56;;;25.02;59.89
11053;BME280;55230;42.602;23.470;2022-07-03T04:22:59;93739.97;;;23.64;59.06
11053;BME280;55230;42.602;23.470;2022-07-03T04:25:27;93987.06;;;24.38;64.11
11053;BME280;55230;42.602;23.470;2022-07-03T04:27:55;93948.13;;;24.10;64.85
11053;BME280;55230;42.602;23.470;2022-07-03T04:30:22;93967.03;;;23.63;67.93
11053;BME280;55230;42.602;23.470;2022-07-03T04:32:48;94022.09;;;24.43;67.11
11053;BME280;55230;42.602;23.470;2022-07-03T04:35:15;93904.31;;;24.25;65.53
11053;BME280;55230;42.602;23.470;2022-07-03T04:37:43;93674.41;;;22.80;64.03
11053;BME280;55230;42.602;23.470;2022-07-03T04:40:11;93790.22;;;24.02;62.17
11053;BME280;55230;42.602;23.470;2022-07-03T04:42:39;93881.97;;;23.78;65.83
11053;BME280;55230;42.602;23.470;2022-07-03T04:45:07;93963.84;;;24.15;67.69
11053;BME280;55230;42.602;23.470;2022-07-03T04:47:34;93934.94;;;23.47;70.65
11053;BME280;55230;42.602;23.470;2022-07-03T04:50:01;93976.44;;;24.29;69.37
11053;BME280;55230;42.602;23.470;2022-07-03T04:52:28;93964.75;;;24.23;69.34
11053;BME280;55230;42.602;23.470;2022-07-03T04:54:54;93970.81;;;23.78;69.79
11053;BME280;55230;42.602;23.470;2022-07-03T04:57:22;93987.50;;;23.67;69.68
11053;BME280;55230;42.602;23.470;2022-07-03T04:59:50;94000.84;;;23.39;70.87
11053;BME280;55230;42.602;23.470;2022-07-03T05:02:17;93873.59;;;22.02;74.55
11053;BME280;55230;42.602;23.470;2022-07-03T05:04:43;93959.88;;;22.82;74.02
11053;BME280;55230;42.602;23.470;2022-07-03T05:07:10;93974.91;;;22.81;77.04
11053;BME280;55230;42.602;23.470;2022-07-03T05:09:37;93980.81;;;23.15;77.51
11053;BME280;55230;42.602;23.470;2022-07-03T05:12:05;93976.00;;;22.97;74.90
11053;BME280;55230;42.602;23.470;2022-07-03T05:14:32;93976.94;;;23.71;74.53
11053;BME280;55230;42.602;23.470;2022-07-03T05:17:00;93703.06;;;23.22;67.12
11053;BME280;55230;42.602;23.470;2022-07-03T05:19:27;93977.72;;;25.04;67.29
11053;BME280;55230;42.602;23.470;2022-07-03T05:21:54;93967.97;;;24.90;67.84
11053;BME280;55230;42.602;23.470;2022-07-03T05:24:20;93984.97;;;25.98;65.10
11053;BME280;55230;42.602;23.470;2022-07-03T05:26:49;93726.72;;;25.66;58.83
11053;BME280;55230;42.602;23.470;2022-07-03T05:29:16;93971.41;;;26.96;56.10
11053;BME280;55230;42.602;23.470;2022-07-03T05:31:43;93888.88;;;26.25;55.01
11053;BME280;55230;42.602;23.470;2022-07-03T05:34:11;93927.66;;;26.33;55.99
11053;BME280;55230;42.602;23.470;2022-07-03T05:36:38;93973.69;;;26.09;57.83
11053;BME280;55230;42.602;23.470;2022-07-03T05:39:04;93809.25;;;25.23;56.78
11053;BME280;55230;42.602;23.470;2022-07-03T05:41:48;93975.44;;;27.36;54.19
11053;BME280;55230;42.602;23.470;2022-07-03T05:44:15;93813.84;;;26.49;51.04
11053;BME280;55230;42.602;23.470;2022-07-03T05:46:42;93615.59;;;24.98;46.47
11053;BME280;55230;42.602;23.470;2022-07-03T05:49:09;93492.47;;;23.86;50.42
11053;BME280;55230;42.602;23.470;2022-07-03T05:51:37;93894.31;;;25.50;55.65
11053;BME280;55230;42.602;23.470;2022-07-03T05:54:04;93553.53;;;22.38;61.40
11053;BME280;55230;42.602;23.470;2022-07-03T05:56:31;93986.53;;;23.83;69.66
11053;BME280;55230;42.602;23.470;2022-07-03T05:58:57;93961.78;;;23.41;71.67
11053;BME280;55230;42.602;23.470;2022-07-03T06:01:24;93807.94;;;22.28;74.24
11053;BME280;55230;42.602;23.470;2022-07-03T06:03:51;93938.44;;;23.23;74.66
11053;BME280;55230;42.602;23.470;2022-07-03T06:06:18;93988.78;;;23.42;77.22
11053;BME280;55230;42.602;23.470;2022-07-03T06:08:46;93774.94;;;21.74;77.55
11053;BME280;55230;42.602;23.470;2022-07-03T06:11:13;93992.47;;;22.72;79.91
11053;BME280;55230;42.602;23.470;2022-07-03T06:13:40;93969.84;;;22.85;77.83
11053;BME280;55230;42.602;23.470;2022-07-03T06:16:06;93995.88;;;23.38;77.69
11053;BME280;55230;42.602;23.470;2022-07-03T06:18:33;93960.00;;;22.95;74.39
11053;BME280;55230;42.602;23.470;2022-07-03T06:21:00;93987.19;;;23.28;74.51
11053;BME280;55230;42.602;23.470;2022-07-03T06:23:27;93992.66;;;23.34;73.56
11053;BME280;55230;42.602;23.470;2022-07-03T06:25:55;93991.50;;;23.48;74.59
11053;BME280;55230;42.602;23.470;2022-07-03T06:28:22;93606.50;;;20.88;74.45
11053;BME280;55230;42.602;23.470;2022-07-03T06:30:48;93808.25;;;21.95;73.90
11053;BME280;55230;42.602;23.470;2022-07-03T06:33:15;93987.44;;;23.30;74.29
11053;BME280;55230;42.602;23.470;2022-07-03T06:35:43;93881.13;;;22.84;73.53
11053;BME280;55230;42.602;23.470;2022-07-03T06:38:09;93502.78;;;20.33;72.92
11053;BME280;55230;42.602;23.470;2022-07-03T06:40:36;93651.69;;;21.70;72.01
11053;BME280;55230;42.602;23.470;2022-07-03T06:43:04;93999.41;;;23.57;72.91
11053;BME280;55230;42.602;23.470;2022-07-03T06:45:31;93825.16;;;22.28;74.74
11053;BME280;55230;42.602;23.470;2022-07-03T06:47:58;93998.59;;;23.62;74.35
11053;BME280;55230;42.602;23.470;2022-07-03T06:50:25;94031.78;;;23.69;72.26
11053;BME280;55230;42.602;23.470;2022-07-03T06:52:52;93972.16;;;23.90;71.02
11053;BME280;55230;42.602;23.470;2022-07-03T06:55:19;94000.91;;;24.51;71.78
11053;BME280;55230;42.602;23.470;2022-07-03T06:57:45;93992.91;;;24.97;68.06
11053;BME280;55230;42.602;23.470;2022-07-03T07:00:14;93996.47;;;25.76;66.61
11053;BME280;55230;42.602;23.470;2022-07-03T07:02:41;93515.81;;;23.02;64.47
11053;BME280;55230;42.602;23.470;2022-07-03T07:05:08;93995.72;;;26.36;60.64
11053;BME280;55230;42.602;23.470;2022-07-03T07:07:35;93945.47;;;25.12;65.41
11053;BME280;55230;42.602;23.470;2022-07-03T07:10:04;93975.19;;;24.93;64.79
11053;BME280;55230;42.602;23.470;2022-07-03T07:12:31;93967.56;;;25.12;64.97
11053;BME280;55230;42.602;23.470;2022-07-03T07:14:58;93972.66;;;25.21;64.77
11053;BME280;55230;42.602;23.470;2022-07-03T07:17:26;93942.22;;;24.69;66.83
11053;BME280;55230;42.602;23.470;2022-07-03T07:19:54;93937.19;;;24.23;68.87
11053;BME280;55230;42.602;23.470;2022-07-03T07:22:21;93993.50;;;24.09;67.39
11053;BME280;55230;42.602;23.470;2022-07-03T07:24:48;93984.84;;;23.99;70.31
11053;BME280;55230;42.602;23.470;2022-07-03T07:27:15;93954.75;;;24.20;71.79
11053;BME280;55230;42.602;23.470;2022-07-03T07:29:42;93954.84;;;24.46;66.18
11053;BME280;55230;42.602;23.470;2022-07-03T07:32:09;93799.13;;;23.76;66.64
11053;BME280;55230;42.602;23.470;2022-07-03T07:34:37;93998.81;;;25.46;65.86
11053;BME280;55230;42.602;23.470;2022-07-03T07:37:04;93951.84;;;25.72;63.05
11053;BME280;55230;42.602;23.470;2022-07-03T07:39:30;93997.13;;;25.69;60.73
11053;BME280;55230;42.602;23.470;2022-07-03T07:41:57;93965.66;;;25.20;63.81
11053;BME280;55230;42.602;23.470;2022-07-03T07:44:24;93702.13;;;23.51;62.17
11053;BME280;55230;42.602;23.470;2022-07-03T07:46:51;93846.06;;;24.47;63.58
11053;BME280;55230;42.602;23.470;2022-07-03T07:49:18;93976.66;;;25.98;62.03
11053;BME280;55230;42.602;23.470;2022-07-03T07:51:46;93893.03;;;25.12;61.50
11053;BME280;55230;42.602;23.470;2022-07-03T07:54:13;93850.97;;;24.54;63.85
11053;BME280;55230;42.602;23.470;2022-07-03T07:56:39;93973.91;;;25.85;61.41
11053;BME280;55230;42.602;23.470;2022-07-03T07:59:06;93837.16;;;24.67;60.98
11053;BME280;55230;42.602;23.470;2022-07-03T08:01:33;93971.47;;;25.95;61.97
11053;BME280;55230;42.602;23.470;2022-07-03T08:04:17;93976.69;;;26.32;61.43
11053;BME280;55230;42.602;23.470;2022-07-03T08:07:03;93862.22;;;25.47;60.66
11053;BME280;55230;42.602;23.470;2022-07-03T08:09:29;93547.34;;;22.69;60.25
11053;BME280;55230;42.602;23.470;2022-07-03T08:11:56;94001.38;;;25.57;61.58
11053;BME280;55230;42.602;23.470;2022-07-03T08:14:23;93943.38;;;25.57;63.25
11053;BME280;55230;42.602;23.470;2022-07-03T08:16:50;93862.97;;;25.35;65.21
11053;BME280;55230;42.602;23.470;2022-07-03T08:19:17;93846.41;;;25.35;61.73
11053;BME280;55230;42.602;23.470;2022-07-03T08:21:43;93965.81;;;26.13;60.30
11053;BME280;55230;42.602;23.470;2022-07-03T08:24:11;93930.59;;;25.67;62.02
11053;BME280;55230;42.602;23.470;2022-07-03T08:26:38;93969.41;;;26.76;59.79
11053;BME280;55230;42.602;23.470;2022-07-03T08:29:05;93908.53;;;26.76;57.04
11053;BME280;55230;42.602;23.470;2022-07-03T08:31:32;93983.38;;;26.91;59.62
11053;BME280;55230;42.602;23.470;2022-07-03T08:33:58;93985.06;;;26.94;58.81
11053;BME280;55230;42.602;23.470;2022-07-03T08:36:25;93882.34;;;26.36;59.88
11053;BME280;55230;42.602;23.470;2022-07-03T08:38:52;93967.66;;;26.86;59.73
11053;BME280;55230;42.602;23.470;2022-07-03T08:41:20;93922.19;;;26.19;62.04
11053;BME280;55230;42.602;23.470;2022-07-03T08:43:50;93972.09;;;26.89;64.52
11053;BME280;55230;42.602;23.470;2022-07-03T08:46:17;93852.75;;;25.89;58.32
11053;BME280;55230;42.602;23.470;2022-07-03T08:48:45;93917.03;;;26.78;60.83
11053;BME280;55230;42.602;23.470;2022-07-03T08:51:13;93795.84;;;25.94;59.49
11053;BME280;55230;42.602;23.470;2022-07-03T08:53:40;93957.84;;;27.54;62.19
11053;BME280;55230;42.602;23.470;2022-07-03T08:56:08;93957.06;;;27.89;55.99
11053;BME280;55230;42.602;23.470;2022-07-03T08:58:37;93902.16;;;27.88;56.36
11053;BME280;55230;42.602;23.470;2022-07-03T09:01:05;93940.75;;;28.21;54.22
11053;BME280;55230;42.602;23.470;2022-07-03T09:03:33;93900.03;;;28.16;54.46
11053;BME280;55230;42.602;23.470;2022-07-03T09:06:00;93761.44;;;27.00;49.13
11053;BME280;55230;42.602;23.470;2022-07-03T09:08:28;93967.00;;;28.20;53.57
11053;BME280;55230;42.602;23.470;2022-07-03T09:10:57;93872.66;;;27.19;51.36
11053;BME280;55230;42.602;23.470;2022-07-03T09:13:24;93806.63;;;26.95;49.86
11053;BME280;55230;42.602;23.470;2022-07-03T09:15:52;93876.16;;;27.19;53.54
11053;BME280;55230;42.602;23.470;2022-07-03T09:18:36;93947.19;;;27.38;52.90
11053;BME280;55230;42.602;23.470;2022-07-03T09:21:04;93880.44;;;26.72;53.55
11053;BME280;55230;42.602;23.470;2022-07-03T09:23:35;93950.50;;;27.64;49.02
11053;BME280;55230;42.602;23.470;2022-07-03T09:26:03;93956.25;;;28.09;48.05
11053;BME280;55230;42.602;23.470;2022-07-03T09:28:46;93926.00;;;28.41;44.07
11053;BME280;55230;42.602;23.470;2022-07-03T09:31:16;93965.69;;;29.40;41.53
11053;BME280;55230;42.602;23.470;2022-07-03T09:33:54;93965.56;;;30.00;40.67
11053;BME280;55230;42.602;23.470;2022-07-03T09:36:23;93946.31;;;30.67;39.29
11053;BME280;55230;42.602;23.470;2022-07-03T09:39:12;93968.34;;;30.72;37.76
11053;BME280;55230;42.602;23.470;2022-07-03T09:41:51;93918.31;;;30.89;34.76
11053;BME280;55230;42.602;23.470;2022-07-03T09:44:28;93951.84;;;31.23;36.70
11053;BME280;55230;42.602;23.470;2022-07-03T09:47:11;93969.03;;;31.54;37.00
11053;BME280;55230;42.602;23.470;2022-07-03T09:49:45;93863.50;;;31.33;37.14
11053;BME280;55230;42.602;23.470;2022-07-03T09:52:35;93947.41;;;32.57;31.83
11053;BME280;55230;42.602;23.470;2022-07-03T09:55:13;93957.69;;;32.37;32.20
11053;BME280;55230;42.602;23.470;2022-07-03T09:57:42;93485.53;;;29.80;32.84
11053;BME280;55230;42.602;23.470;2022-07-03T10:00:14;93938.94;;;33.01;35.05
11053;BME280;55230;42.602;23.470;2022-07-03T10:02:57;93915.56;;;32.69;32.77
11053;BME280;55230;42.602;23.470;2022-07-03T10:05:25;93937.59;;;32.65;31.93
11053;BME280;55230;42.602;23.470;2022-07-03T10:07:56;93741.91;;;30.70;31.36
11053;BME280;55230;42.602;23.470;2022-07-03T10:10:24;93940.66;;;32.16;32.56
11053;BME280;55230;42.602;23.470;2022-07-03T10:12:53;93929.66;;;31.84;33.56
11053;BME280;55230;42.602;23.470;2022-07-03T10:15:20;93878.00;;;31.66;33.94
11053;BME280;55230;42.602;23.470;2022-07-03T10:17:48;93913.09;;;31.69;33.33
11053;BME280;55230;42.602;23.470;2022-07-03T10:20:23;93917.34;;;32.21;32.82
11053;BME280;55230;42.602;23.470;2022-07-03T10:22:50;93851.59;;;31.50;33.63
11053;BME280;55230;42.602;23.470;2022-07-03T10:25:17;93918.41;;;32.52;33.88
11053;BME280;55230;42.602;23.470;2022-07-03T10:27:45;93786.50;;;32.35;33.07
11053;BME280;55230;42.602;23.470;2022-07-03T10:30:14;93838.97;;;32.72;32.57
11053;BME280;55230;42.602;23.470;2022-07-03T10:32:42;93917.25;;;33.28;33.99
11053;BME280;55230;42.602;23.470;2022-07-03T10:35:11;93887.59;;;32.96;31.85
11053;BME280;55230;42.602;23.470;2022-07-03T10:37:46;93875.31;;;31.93;32.01
11053;BME280;55230;42.602;23.470;2022-07-03T10:40:22;93856.59;;;32.65;33.82
11053;BME280;55230;42.602;23.470;2022-07-03T10:43:18;93908.50;;;31.47;34.36
11053;BME280;55230;42.602;23.470;2022-07-03T10:46:08;93859.94;;;30.17;33.82
11053;BME280;55230;42.602;23.470;2022-07-03T10:48:59;93907.66;;;30.71;34.44
11053;BME280;55230;42.602;23.470;2022-07-03T10:51:27;93906.72;;;31.00;36.56
11053;BME280;55230;42.602;23.470;2022-07-03T10:54:17;93741.81;;;29.54;36.47
11053;BME280;55230;42.602;23.470;2022-07-03T10:57:09;93908.88;;;31.09;36.39
11053;BME280;55230;42.602;23.470;2022-07-03T11:00:04;93911.59;;;30.68;33.94
11053;BME280;55230;42.602;23.470;2022-07-03T11:02:37;93848.47;;;30.45;37.85
11053;BME280;55230;42.602;23.470;2022-07-03T11:05:19;93883.91;;;30.70;36.92
11053;BME280;55230;42.602;23.470;2022-07-03T11:08:08;93897.47;;;31.15;36.65
11053;BME280;55230;42.602;23.470;2022-07-03T11:10:37;93890.63;;;30.67;37.43
11053;BME280;55230;42.602;23.470;2022-07-03T11:13:17;93892.41;;;30.79;37.05
11053;BME280;55230;42.602;23.470;2022-07-03T11:15:52;93886.72;;;30.94;37.86
11053;BME280;55230;42.602;23.470;2022-07-03T11:18:24;93518.34;;;28.43;36.49
11053;BME280;55230;42.602;23.470;2022-07-03T11:21:28;93876.22;;;31.02;35.87
11053;BME280;55230;42.602;23.470;2022-07-03T11:24:14;93877.66;;;30.86;37.48
11053;BME280;55230;42.602;23.470;2022-07-03T11:26:46;93653.22;;;28.86;36.41
11053;BME280;55230;42.602;23.470;2022-07-03T11:29:25;93865.28;;;30.30;38.08
11053;BME280;55230;42.602;23.470;2022-07-03T11:31:53;93801.94;;;30.06;39.25
11053;BME280;55230;42.602;23.470;2022-07-03T11:34:20;93917.88;;;30.43;38.83
11053;BME280;55230;42.602;23.470;2022-07-03T11:36:47;93656.56;;;29.57;37.75
11053;BME280;55230;42.602;23.470;2022-07-03T11:39:18;93848.72;;;30.57;35.73
11053;BME280;55230;42.602;23.470;2022-07-03T11:41:47;93813.03;;;30.14;37.25
11053;BME280;55230;42.602;23.470;2022-07-03T11:44:16;93803.41;;;30.15;37.08
11053;BME280;55230;42.602;23.470;2022-07-03T11:46:50;93852.34;;;30.18;37.02
11053;BME280;55230;42.602;23.470;2022-07-03T11:49:19;93824.56;;;29.78;37.67
11053;BME280;55230;42.602;23.470;2022-07-03T11:51:57;93847.88;;;30.47;38.80
11053;BME280;55230;42.602;23.470;2022-07-03T11:54:25;93801.19;;;30.63;36.97
11053;BME280;55230;42.602;23.470;2022-07-03T11:56:53;93864.34;;;31.02;38.35
11053;BME280;55230;42.602;23.470;2022-07-03T11:59:20;93814.94;;;31.19;34.62
11053;BME280;55230;42.602;23.470;2022-07-03T12:01:48;93668.69;;;29.44;36.79
11053;BME280;55230;42.602;23.470;2022-07-03T12:04:16;93832.78;;;30.82;36.90
11053;BME280;55230;42.602;23.470;2022-07-03T12:06:45;93847.44;;;30.83;38.07
11053;BME280;55230;42.602;23.470;2022-07-03T12:09:15;93837.00;;;31.25;37.45
11053;BME280;55230;42.602;23.470;2022-07-03T12:11:56;93798.47;;;30.97;37.76
11053;BME280;55230;42.602;23.470;2022-07-03T12:14:38;93841.28;;;31.43;35.39
11053;BME280;55230;42.602;23.470;2022-07-03T12:17:07;93659.25;;;30.38;35.45
11053;BME280;55230;42.602;23.470;2022-07-03T12:19:34;93801.41;;;31.16;35.48
11053;BME280;55230;42.602;23.470;2022-07-03T12:22:00;93825.84;;;30.91;37.16
11053;BME280;55230;42.602;23.470;2022-07-03T12:24:27;93809.69;;;30.65;36.61
11053;BME280;55230;42.602;23.470;2022-07-03T12:26:55;93724.38;;;30.59;36.79
11053;BME280;55230;42.602;23.470;2022-07-03T12:29:22;93785.84;;;31.13;36.97
11053;BME280;55230;42.602;23.470;2022-07-03T12:31:50;93673.09;;;30.28;35.18
11053;BME280;55230;42.602;23.470;2022-07-03T12:34:18;93829.38;;;31.25;36.63
11053;BME280;55230;42.602;23.470;2022-07-03T12:36:56;93834.59;;;30.63;35.80
11053;BME280;55230;42.602;23.470;2022-07-03T12:39:24;93829.28;;;31.16;35.44
11053;BME280;55230;42.602;23.470;2022-07-03T12:41:50;93757.97;;;30.37;34.31
11053;BME280;55230;42.602;23.470;2022-07-03T12:44:19;93344.44;;;27.89;33.95
11053;BME280;55230;42.602;23.470;2022-07-03T12:46:46;93818.31;;;31.01;34.85
11053;BME280;55230;42.602;23.470;2022-07-03T12:49:15;93804.38;;;31.52;36.34
11053;BME280;55230;42.602;23.470;2022-07-03T12:51:43;93775.28;;;31.89;36.82
11053;BME280;55230;42.602;23.470;2022-07-03T12:54:11;93587.13;;;30.67;34.36
11053;BME280;55230;42.602;23.470;2022-07-03T12:56:39;93850.09;;;31.83;34.61
11053;BME280;55230;42.602;23.470;2022-07-03T12:59:06;93815.16;;;32.09;34.66
11053;BME280;55230;42.602;23.470;2022-07-03T13:02:00;93789.34;;;30.96;34.84
11053;BME280;55230;42.602;23.470;2022-07-03T13:04:31;93822.91;;;31.57;34.21
11053;BME280;55230;42.602;23.470;2022-07-03T13:07:02;93687.19;;;30.30;34.17